Aeroporto :
LOGIN :

Iscrizione | Disclaimer

   EN    FR    IT 

 










Sommario :    VFR   VFR Marginale   IFR   IFR Intensivo   IFR Molto Intensivo
Visibilità : 
Base nubi : 
>= 8 km
>= 3000ft
5 / 8 km
1000 / 3000 ft
1500m / 5 km
500 / 1000 ft
800 / 1500m
200 / 500 ft
< 800m
< 200 ft
Simboli :   Temporali  Nebbia  Neve Forte  Precipitazioni Forti  Vento > 20 kt
SIGMETs :   Varie  Temporali  Ghiacco  Turbolenza  Onda orograficha  Ceneri Vulcaniche






- Altitudine del aeroporto : 392 ft
- Codice IATA : CDG


LFPG - Paris-Aeroport Charles De Gaulle

ULTIMO METAR :
  • 230100Z 22010KT 9999 SCT017 BKN050 20/16 Q1019 NOSIG

METARs OBSOLETI :
  • 230030Z 21010KT 9999 SCT018 BKN056 20/16 Q1019 NOSIG
  • 230000Z 22010KT 9999 FEW021 BKN060 BKN100 20/16 Q1020 NOSIG
  • 222330Z 21009KT 9999 FEW021 BKN100 20/16 Q1020 NOSIG
  • 222300Z 22010KT 9999 FEW021 20/15 Q1020 NOSIG
  • 222230Z 23007KT 9999 FEW026 20/15 Q1020 NOSIG
  • 222200Z 25007KT CAVOK 20/15 Q1020 NOSIG
  • 222130Z 24009KT 210V270 CAVOK 21/15 Q1020 NOSIG
  • 222100Z 25010KT 9999 FEW036 BKN060 21/15 Q1020 NOSIG
  • 222030Z 25010KT 9999 FEW033 BKN063 22/15 Q1020 NOSIG

TAF TAF LFPG
Valido dal 23 a 00 ore il 24 a 06 ore UTC


222300Z 2300/2406 24008KT CAVOK TX24/2314Z TN17/2406Z
TEMPO 2301/2308 4000 -DZRA BKN012
PROB40
TEMPO 2302/2306 1500 DZRA SCT003 BKN008
TEMPO 2311/2317 28010G25KT
ATIS : +33 1 48 62 10 92



MetMap, La meteo Aeronautica in un colpo d'occhio ! - Copyright ORBIFLY Dicembre 2007 - Disclaimer

ORBIFLY MET'MAP TEAM :

Programmazione e sviluppo : Alexandra Zaïnal
Concezione : Baudouin d'Aumeries
Supporto tecnico e logistico : Manuel Goepfert
Aiuto : Marc-Olivier Méhu
Aiuto per la traduzione : Arnaldo La Scala




FONTI E CREDITI :

   NOAA